Time;durP1;ratioP1;P1;durP2;ratioP2;P2;SDS_P1;SDS_P2;PMS_P1;PMS_P2;Temp;Humidity;BMP_temperature;BMP_pressure;BME280_temperature;BME280_humidity;BME280_pressure;Samples;Min_cycle;Max_cycle;Signal;HPM_P1;HPM_P2
2023/03/23 00:01:05;;;;;;;4.68;3.38;;;22.70;37.80;;;;;;5093037;28;20048;-59
2023/03/23 00:03:32;;;;;;;6.22;3.83;;;22.70;37.80;;;;;;5091862;28;20048;-59
2023/03/23 00:06:05;;;;;;;5.18;4.22;;;22.70;37.80;;;;;;5091829;28;20093;-59
2023/03/23 00:08:37;;;;;;;4.80;3.47;;;22.70;37.80;;;;;;5093255;28;20047;-59
2023/03/23 00:11:07;;;;;;;5.10;4.07;;;22.70;37.80;;;;;;5092111;28;20404;-59
2023/03/23 00:13:33;;;;;;;4.43;3.63;;;22.70;37.80;;;;;;5092942;28;20048;-61
2023/03/23 00:15:59;;;;;;;6.40;3.88;;;22.70;37.80;;;;;;5092647;28;20058;-61
2023/03/23 00:18:26;;;;;;;4.68;3.70;;;22.60;37.70;;;;;;5092789;28;20044;-61
2023/03/23 00:20:54;;;;;;;4.60;3.83;;;22.60;37.70;;;;;;5090104;28;20044;-61
2023/03/23 00:23:23;;;;;;;4.93;3.88;;;22.60;37.70;;;;;;5092065;28;20059;-61
2023/03/23 00:25:53;;;;;;;4.25;3.85;;;22.60;37.70;;;;;;5091741;28;20442;-61
2023/03/23 00:28:24;;;;;;;5.35;4.05;;;22.60;37.80;;;;;;5092854;28;20047;-61
2023/03/23 00:30:57;;;;;;;5.00;3.92;;;22.60;37.80;;;;;;5093446;28;20097;-61
2023/03/23 00:33:26;;;;;;;5.95;3.65;;;22.60;37.80;;;;;;5092925;28;20044;-61
2023/03/23 00:35:52;;;;;;;5.53;3.50;;;22.60;37.70;;;;;;5092712;28;20096;-61
2023/03/23 00:38:19;;;;;;;5.20;3.40;;;22.60;37.70;;;;;;5091758;28;20052;-61
2023/03/23 00:40:47;;;;;;;3.78;3.35;;;22.60;37.80;;;;;;5093258;28;20041;-61
2023/03/23 00:43:18;;;;;;;5.05;3.88;;;22.70;37.70;;;;;;5093015;28;20365;-61
2023/03/23 00:45:54;;;;;;;5.68;4.13;;;22.60;37.70;;;;;;5093284;28;20377;-61
2023/03/23 00:48:21;;;;;;;4.57;3.40;;;22.70;37.70;;;;;;5092896;28;20495;-61
2023/03/23 00:50:47;;;;;;;3.63;3.28;;;22.70;37.70;;;;;;5091584;28;20561;-61
2023/03/23 00:53:14;;;;;;;4.78;3.80;;;22.70;37.70;;;;;;5091524;28;20476;-61
2023/03/23 00:55:42;;;;;;;4.95;3.60;;;22.60;37.60;;;;;;5092109;28;20052;-60
2023/03/23 00:58:09;;;;;;;4.03;3.45;;;22.60;37.60;;;;;;5092522;28;20044;-61
2023/03/23 01:00:36;;;;;;;5.70;3.75;;;22.60;37.60;;;;;;5092865;28;20084;-61
2023/03/23 01:03:02;;;;;;;5.00;3.70;;;22.60;37.60;;;;;;5091474;28;20048;-61
2023/03/23 01:05:31;;;;;;;4.65;3.55;;;22.60;37.70;;;;;;5091930;28;20477;-61
2023/03/23 01:08:01;;;;;;;3.55;3.20;;;22.60;37.70;;;;;;5092950;28;20048;-61
2023/03/23 01:10:28;;;;;;;8.27;4.28;;;22.60;37.70;;;;;;5092876;28;20450;-60
2023/03/23 01:12:54;;;;;;;5.10;3.40;;;22.60;37.70;;;;;;5092871;28;20120;-60
2023/03/23 01:15:21;;;;;;;5.45;3.63;;;22.60;37.70;;;;;;5092078;28;20113;-61
2023/03/23 01:17:47;;;;;;;4.30;3.55;;;22.60;37.70;;;;;;5092680;28;20048;-61
2023/03/23 01:20:14;;;;;;;4.60;3.63;;;22.60;37.70;;;;;;5074904;28;20119;-61
2023/03/23 01:22:42;;;;;;;4.85;3.60;;;22.60;37.70;;;;;;5092685;28;20044;-61
2023/03/23 01:25:10;;;;;;;5.22;3.55;;;22.60;37.70;;;;;;5091371;28;20486;-60
2023/03/23 01:27:36;;;;;;;4.18;3.42;;;22.50;37.70;;;;;;5091568;28;20076;-61
2023/03/23 01:30:03;;;;;;;6.07;3.80;;;22.60;37.70;;;;;;5092254;28;20452;-61
2023/03/23 01:32:29;;;;;;;4.60;3.67;;;22.50;37.70;;;;;;5095643;28;20051;-61
2023/03/23 01:34:55;;;;;;;3.85;3.45;;;22.60;37.70;;;;;;5095453;28;20040;-61
2023/03/23 01:37:26;;;;;;;4.82;3.33;;;22.50;37.70;;;;;;5095909;28;20127;-61
2023/03/23 01:39:56;;;;;;;4.53;3.58;;;22.50;37.70;;;;;;5095826;28;20472;-62
2023/03/23 01:42:30;;;;;;;4.93;3.85;;;22.50;37.70;;;;;;5095731;28;20048;-61
2023/03/23 01:45:19;;;;;;;4.63;4.13;;;22.50;37.70;;;;;;5095506;28;20048;-61
2023/03/23 01:47:46;;;;;;;4.32;2.92;;;22.50;38.20;;;;;;5095286;28;20048;-61
2023/03/23 01:50:13;;;;;;;3.45;3.15;;;22.50;37.70;;;;;;5095606;28;20048;-61
2023/03/23 01:52:39;;;;;;;4.78;3.75;;;22.50;37.60;;;;;;5095665;28;20044;-61
2023/03/23 01:55:05;;;;;;;4.60;3.53;;;22.50;37.70;;;;;;5095137;28;20052;-61
2023/03/23 01:57:32;;;;;;;4.20;3.20;;;22.50;37.60;;;;;;5095391;28;20385;-61
2023/03/23 02:00:10;;;;;;;3.60;3.10;;;22.50;37.60;;;;;;5086958;28;20381;-61
2023/03/23 02:02:38;;;;;;;5.30;3.42;;;22.50;37.60;;;;;;5078571;28;20158;-61
2023/03/23 02:05:11;;;;;;;3.35;3.05;;;22.50;37.70;;;;;;5074926;28;20040;-61
2023/03/23 02:07:37;;;;;;;4.13;3.70;;;22.50;37.70;;;;;;5074995;28;20310;-60
2023/03/23 02:10:04;;;;;;;4.35;3.13;;;22.50;37.70;;;;;;5074991;28;20048;-61
2023/03/23 02:12:30;;;;;;;4.10;3.38;;;22.50;37.70;;;;;;5075020;28;20040;-61
2023/03/23 02:14:56;;;;;;;3.10;2.80;;;22.50;37.70;;;;;;5075242;28;20047;-62
2023/03/23 02:17:36;;;;;;;3.97;2.88;;;22.50;37.70;;;;;;5075139;28;20049;-61
2023/03/23 02:20:41;;;;;;;3.22;2.70;;;22.50;37.70;;;;;;5074754;28;20055;-61
2023/03/23 02:23:35;;;;;;;3.20;2.90;;;22.40;37.60;;;;;;5075242;28;20455;-61
2023/03/23 02:26:22;;;;;;;3.40;2.90;;;22.40;37.60;;;;;;5073589;28;20086;-61
2023/03/23 02:29:13;;;;;;;4.93;3.08;;;22.50;37.70;;;;;;5074913;28;20123;-61
2023/03/23 02:32:05;;;;;;;3.35;2.60;;;22.40;37.60;;;;;;5074795;28;20128;-61
2023/03/23 02:34:42;;;;;;;3.55;3.13;;;22.40;37.60;;;;;;5073535;28;20048;-61
2023/03/23 02:37:22;;;;;;;2.75;2.55;;;22.40;37.60;;;;;;5073168;28;20048;-61
2023/03/23 02:39:53;;;;;;;2.90;2.50;;;22.40;37.60;;;;;;5074581;28;20048;-60
2023/03/23 02:42:31;;;;;;;3.00;2.72;;;22.40;37.60;;;;;;5074413;28;20123;-61
2023/03/23 02:45:03;;;;;;;4.05;2.92;;;22.40;37.60;;;;;;5074041;28;20052;-60
2023/03/23 02:47:30;;;;;;;3.45;2.72;;;22.50;37.60;;;;;;5073009;28;20067;-61
2023/03/23 02:49:58;;;;;;;4.10;3.22;;;22.50;37.60;;;;;;5073620;28;20083;-61
2023/03/23 02:52:29;;;;;;;3.55;2.75;;;22.40;37.50;;;;;;5074308;28;20507;-61
2023/03/23 02:54:56;;;;;;;3.80;3.20;;;22.50;37.50;;;;;;5073612;28;20052;-61
2023/03/23 02:57:24;;;;;;;3.28;2.92;;;22.50;37.50;;;;;;5073632;28;20056;-61
2023/03/23 02:59:50;;;;;;;3.55;2.85;;;22.40;37.40;;;;;;5073967;28;20055;-61
2023/03/23 03:02:22;;;;;;;2.80;2.40;;;22.50;37.50;;;;;;5072859;28;20036;-61
2023/03/23 03:05:12;;;;;;;4.13;3.10;;;22.50;37.50;;;;;;5074178;28;20091;-61
2023/03/23 03:08:07;;;;;;;3.35;2.85;;;22.50;37.50;;;;;;5073212;28;20044;-61
2023/03/23 03:10:57;;;;;;;3.10;2.53;;;22.50;37.50;;;;;;5072961;28;20047;-60
2023/03/23 03:13:38;;;;;;;2.38;2.17;;;22.50;37.60;;;;;;5072856;28;20048;-61
2023/03/23 03:16:27;;;;;;;2.67;2.20;;;22.40;37.50;;;;;;5072754;28;20060;-61
2023/03/23 03:19:25;;;;;;;4.55;3.00;;;22.40;37.50;;;;;;5073875;28;20045;-61
2023/03/23 03:21:54;;;;;;;2.97;2.38;;;22.40;37.50;;;;;;5073309;28;20127;-61
2023/03/23 03:24:21;;;;;;;3.45;2.83;;;22.40;37.50;;;;;;5073857;28;20036;-61
2023/03/23 03:26:51;;;;;;;3.22;2.53;;;22.40;37.50;;;;;;5072075;28;20577;-61
2023/03/23 03:29:24;;;;;;;2.83;2.50;;;22.40;37.50;;;;;;5073586;28;20178;-61
2023/03/23 03:31:55;;;;;;;2.95;2.50;;;22.40;37.50;;;;;;5073396;28;20056;-61
2023/03/23 03:34:23;;;;;;;2.70;2.22;;;22.40;37.50;;;;;;5073969;28;20044;-61
2023/03/23 03:36:51;;;;;;;3.60;2.95;;;22.40;37.50;;;;;;5073378;28;20481;-61
2023/03/23 03:39:20;;;;;;;3.22;2.50;;;22.40;37.50;;;;;;5073500;28;20048;-61
2023/03/23 03:41:46;;;;;;;3.00;2.30;;;22.30;37.40;;;;;;5073492;28;20040;-61
2023/03/23 03:44:12;;;;;;;3.13;2.20;;;22.40;37.50;;;;;;5073207;28;20455;-61
2023/03/23 03:46:38;;;;;;;3.03;2.42;;;22.40;37.50;;;;;;5072095;28;20144;-61
2023/03/23 03:49:07;;;;;;;2.38;2.17;;;22.40;37.50;;;;;;5073176;28;20129;-61
2023/03/23 03:51:34;;;;;;;3.67;2.25;;;22.30;37.40;;;;;;5071993;28;20493;-61
2023/03/23 03:54:00;;;;;;;3.47;2.28;;;22.40;37.50;;;;;;5072732;28;20036;-61
2023/03/23 03:56:26;;;;;;;3.17;2.22;;;22.30;37.40;;;;;;5073019;28;20055;-61
2023/03/23 03:58:52;;;;;;;2.20;1.95;;;22.40;38.10;;;;;;5073037;28;20028;-61
2023/03/23 04:01:21;;;;;;;2.22;2.00;;;22.30;37.40;;;;;;5072891;28;20052;-61
2023/03/23 04:03:47;;;;;;;1.92;1.80;;;22.40;37.50;;;;;;5071928;28;20052;-61
2023/03/23 04:06:13;;;;;;;3.40;2.88;;;22.30;37.40;;;;;;5073085;28;20093;-60
2023/03/23 04:08:41;;;;;;;2.45;2.25;;;22.30;37.40;;;;;;5073138;28;20496;-61
2023/03/23 04:11:12;;;;;;;2.95;2.22;;;22.30;37.40;;;;;;5073371;28;20048;-61
2023/03/23 04:13:38;;;;;;;2.20;1.90;;;22.30;37.40;;;;;;5073222;28;20629;-61
2023/03/23 04:16:05;;;;;;;2.03;1.90;;;22.30;37.40;;;;;;5073079;28;20042;-61
2023/03/23 04:18:34;;;;;;;2.00;1.80;;;22.30;37.40;;;;;;5072918;28;20045;-61
2023/03/23 04:21:02;;;;;;;2.53;1.80;;;22.30;37.40;;;;;;5072847;28;20044;-61
2023/03/23 04:23:30;;;;;;;1.80;1.70;;;22.30;37.40;;;;;;5071571;28;20293;-61
2023/03/23 04:25:57;;;;;;;2.13;1.92;;;22.30;37.40;;;;;;5071452;28;20507;-60
2023/03/23 04:28:25;;;;;;;2.95;2.45;;;22.30;37.40;;;;;;5072983;28;20045;-61
2023/03/23 04:30:55;;;;;;;2.20;2.00;;;22.30;37.50;;;;;;5073010;28;20384;-61
2023/03/23 04:33:24;;;;;;;1.48;1.38;;;22.30;37.40;;;;;;5072708;28;20076;-61
2023/03/23 04:35:56;;;;;;;2.75;1.88;;;22.30;37.40;;;;;;5072777;28;20094;-61
2023/03/23 04:38:24;;;;;;;2.35;1.77;;;22.30;37.40;;;;;;5080775;28;20069;-61
2023/03/23 04:40:52;;;;;;;1.70;1.60;;;22.30;37.40;;;;;;5091966;28;20056;-60
2023/03/23 04:43:24;;;;;;;1.92;1.65;;;22.30;37.50;;;;;;5090581;28;20194;-62
2023/03/23 04:45:57;;;;;;;2.17;1.77;;;22.30;37.40;;;;;;5092312;28;20484;-61
2023/03/23 04:48:24;;;;;;;1.77;1.33;;;22.30;37.40;;;;;;5093295;28;20433;-61
2023/03/23 04:50:50;;;;;;;1.92;1.70;;;22.30;37.40;;;;;;5074775;28;20056;-61
2023/03/23 04:53:17;;;;;;;1.70;1.60;;;22.30;37.40;;;;;;5072473;28;20124;-61
2023/03/23 04:55:44;;;;;;;2.03;1.85;;;22.30;37.30;;;;;;5072714;28;20186;-61
2023/03/23 04:58:12;;;;;;;1.60;1.50;;;22.30;37.30;;;;;;5072406;28;20149;-61
2023/03/23 05:00:38;;;;;;;1.80;1.42;;;22.30;37.30;;;;;;5072350;28;20057;-61
2023/03/23 05:03:07;;;;;;;1.60;1.50;;;22.40;37.30;;;;;;5072607;28;20045;-60
2023/03/23 05:05:34;;;;;;;3.25;1.80;;;22.40;37.30;;;;;;5081620;28;20036;-61
2023/03/23 05:08:00;;;;;;;1.80;1.50;;;22.40;37.20;;;;;;5094266;28;20052;-61
2023/03/23 05:10:26;;;;;;;1.75;1.50;;;22.40;37.20;;;;;;5095668;28;20040;-61
2023/03/23 05:12:54;;;;;;;1.77;1.65;;;22.40;37.20;;;;;;5084636;28;20080;-61
2023/03/23 05:15:20;;;;;;;1.63;1.52;;;22.40;37.20;;;;;;5075659;28;20071;-61
2023/03/23 05:17:48;;;;;;;1.80;1.40;;;22.40;37.20;;;;;;5076069;28;20072;-61
2023/03/23 05:20:18;;;;;;;1.42;1.33;;;22.40;37.20;;;;;;5090568;28;20056;-61
2023/03/23 05:22:44;;;;;;;1.85;1.45;;;22.40;37.20;;;;;;5081246;28;20079;-60
2023/03/23 05:25:10;;;;;;;1.48;1.38;;;22.40;37.20;;;;;;5088759;28;20076;-61
2023/03/23 05:27:43;;;;;;;1.52;1.40;;;22.40;37.20;;;;;;5081279;28;20123;-60
2023/03/23 05:30:09;;;;;;;1.63;1.52;;;22.40;37.20;;;;;;5087065;28;20040;-61
2023/03/23 05:32:37;;;;;;;1.45;1.20;;;22.40;37.10;;;;;;5076117;28;20401;-61
2023/03/23 05:35:03;;;;;;;2.10;1.77;;;22.40;37.10;;;;;;5088971;28;20065;-61
2023/03/23 05:37:32;;;;;;;1.85;1.75;;;22.40;37.00;;;;;;5083912;28;20037;-61
2023/03/23 05:40:04;;;;;;;3.08;2.22;;;22.40;36.80;;;;;;5075086;28;20051;-61
2023/03/23 05:42:35;;;;;;;3.03;2.28;;;22.40;36.60;;;;;;5093412;28;20469;-61
2023/03/23 05:45:05;;;;;;;1.80;1.70;;;22.40;36.50;;;;;;5093646;28;20040;-61
2023/03/23 05:47:32;;;;;;;3.13;2.83;;;22.40;36.40;;;;;;5087488;28;20554;-61
2023/03/23 05:49:58;;;;;;;3.75;2.58;;;22.40;36.40;;;;;;5076181;28;20273;-61
2023/03/23 05:52:24;;;;;;;3.05;2.13;;;22.40;36.30;;;;;;5075439;28;20050;-61
2023/03/23 05:54:51;;;;;;;2.40;2.17;;;22.40;36.30;;;;;;5092979;28;20047;-61
2023/03/23 05:57:18;;;;;;;3.47;2.50;;;22.40;36.30;;;;;;5091098;28;20043;-60
2023/03/23 05:59:44;;;;;;;6.22;1.98;;;22.40;36.30;;;;;;5092012;28;20036;-61
2023/03/23 06:02:11;;;;;;;3.38;2.40;;;22.40;36.20;;;;;;5093966;28;20158;-60
2023/03/23 06:04:37;;;;;;;3.13;2.00;;;22.40;36.20;;;;;;5091981;28;20036;-60
2023/03/23 06:07:04;;;;;;;2.53;2.10;;;22.50;36.10;;;;;;5090666;28;20040;-60
2023/03/23 06:09:30;;;;;;;4.28;2.13;;;22.50;36.10;;;;;;5094828;28;20574;-60
2023/03/23 06:11:57;;;;;;;2.60;2.30;;;22.50;36.10;;;;;;5089633;28;20048;-60
2023/03/23 06:14:22;;;;;;;2.20;1.92;;;22.50;36.00;;;;;;5091709;28;20059;-60
2023/03/23 06:16:48;;;;;;;2.53;2.22;;;22.50;36.00;;;;;;5086946;28;20052;-61
2023/03/23 06:19:15;;;;;;;2.42;2.20;;;22.60;36.00;;;;;;5074919;28;20032;-60
2023/03/23 06:21:42;;;;;;;3.15;2.55;;;22.60;35.90;;;;;;5079623;28;20044;-60
2023/03/23 06:24:08;;;;;;;3.35;2.53;;;22.60;35.80;;;;;;5090816;28;20063;-59
2023/03/23 06:26:37;;;;;;;2.30;2.10;;;22.70;35.90;;;;;;5082284;28;20170;-59
2023/03/23 06:29:10;;;;;;;2.95;2.50;;;22.70;35.70;;;;;;5087888;28;20126;-60
2023/03/23 06:31:44;;;;;;;3.70;2.20;;;22.80;35.70;;;;;;5067201;28;20043;-61
2023/03/23 06:34:11;;;;;;;3.63;2.38;;;22.80;35.60;;;;;;5080245;28;20656;-60
2023/03/23 06:36:38;;;;;;;2.78;2.55;;;22.90;35.60;;;;;;5088760;28;20044;-61
2023/03/23 06:39:04;;;;;;;3.28;2.33;;;22.90;35.50;;;;;;5082290;28;20047;-60
2023/03/23 06:41:32;;;;;;;4.80;2.92;;;22.90;35.40;;;;;;5083186;28;20051;-60
2023/03/23 06:43:59;;;;;;;3.05;2.55;;;23.00;35.40;;;;;;5081630;28;20167;-61
2023/03/23 06:46:25;;;;;;;3.50;3.20;;;23.00;35.40;;;;;;5081103;28;20382;-60
2023/03/23 06:48:51;;;;;;;5.15;3.08;;;23.10;35.50;;;;;;5056385;28;20061;-60
2023/03/23 06:51:18;;;;;;;3.55;2.75;;;23.20;35.60;;;;;;5082826;28;20467;-59
2023/03/23 06:53:44;;;;;;;6.68;2.80;;;23.20;35.50;;;;;;5062902;28;20044;-59
2023/03/23 06:56:12;;;;;;;3.35;2.92;;;23.30;35.60;;;;;;5079150;28;20486;-59
2023/03/23 06:58:39;;;;;;;5.05;3.22;;;23.30;35.60;;;;;;5074879;28;20062;-59
2023/03/23 07:01:06;;;;;;;3.20;2.67;;;23.40;35.70;;;;;;5074099;28;20040;-59
2023/03/23 07:03:32;;;;;;;5.88;3.20;;;23.40;36.30;;;;;;5076894;28;20044;-60
2023/03/23 07:05:59;;;;;;;4.68;3.00;;;23.50;35.70;;;;;;5079666;28;20056;-61
2023/03/23 07:08:26;;;;;;;5.72;3.00;;;23.60;35.80;;;;;;5072391;28;20051;-59
2023/03/23 07:10:53;;;;;;;4.93;3.15;;;23.60;35.80;;;;;;5078866;28;20500;-59
2023/03/23 07:13:20;;;;;;;3.83;2.75;;;23.70;35.80;;;;;;5079017;28;20042;-60
2023/03/23 07:15:48;;;;;;;3.97;3.10;;;23.80;35.80;;;;;;5084822;28;20036;-59
2023/03/23 07:18:14;;;;;;;5.78;3.40;;;23.80;35.70;;;;;;5081659;28;20044;-59
2023/03/23 07:20:41;;;;;;;4.20;3.05;;;23.90;35.60;;;;;;5064619;28;20601;-59
2023/03/23 07:23:07;;;;;;;4.28;2.80;;;23.90;35.50;;;;;;5081536;28;20062;-59
2023/03/23 07:25:35;;;;;;;3.53;3.00;;;24.00;35.40;;;;;;5082437;28;20064;-60
2023/03/23 07:28:06;;;;;;;4.05;3.00;;;24.10;35.30;;;;;;5076569;28;20074;-59
2023/03/23 07:30:32;;;;;;;3.92;3.22;;;24.10;35.20;;;;;;5075590;28;20082;-59
2023/03/23 07:32:58;;;;;;;2.83;2.53;;;24.10;35.20;;;;;;5078954;28;20071;-59
2023/03/23 07:35:25;;;;;;;5.00;2.97;;;24.10;35.20;;;;;;5076909;28;20055;-59
2023/03/23 07:37:53;;;;;;;4.05;2.42;;;24.20;35.40;;;;;;5076473;28;20044;-59
2023/03/23 07:40:19;;;;;;;7.47;2.90;;;24.20;35.30;;;;;;5080738;28;20073;-59
2023/03/23 07:42:49;;;;;;;4.72;2.50;;;24.30;35.30;;;;;;5081279;28;20051;-59
2023/03/23 07:45:16;;;;;;;6.57;2.95;;;24.30;35.10;;;;;;5077050;28;20044;-59
2023/03/23 07:47:42;;;;;;;4.78;2.80;;;24.30;34.80;;;;;;5075111;28;20102;-61
2023/03/23 07:50:09;;;;;;;4.75;2.67;;;24.40;34.80;;;;;;5078925;28;20047;-59
2023/03/23 07:52:36;;;;;;;3.63;2.40;;;24.40;34.60;;;;;;5071673;28;20051;-58
2023/03/23 07:55:03;;;;;;;2.42;2.10;;;24.50;34.50;;;;;;5076367;28;20553;-58
2023/03/23 07:57:32;;;;;;;3.42;2.55;;;24.50;34.30;;;;;;5081872;28;20047;-58
2023/03/23 07:59:59;;;;;;;3.20;2.30;;;24.50;34.20;;;;;;5072737;28;20630;-57
2023/03/23 08:02:26;;;;;;;2.95;2.25;;;24.60;34.30;;;;;;5078312;28;20052;-57
2023/03/23 08:04:53;;;;;;;3.92;2.67;;;24.60;34.10;;;;;;5076614;28;20079;-57
2023/03/23 08:07:20;;;;;;;2.63;2.30;;;24.60;34.10;;;;;;5078178;28;20044;-57
2023/03/23 08:09:48;;;;;;;4.32;2.30;;;24.70;34.10;;;;;;5077758;28;20081;-58
2023/03/23 08:12:14;;;;;;;3.35;1.90;;;24.70;34.00;;;;;;5081247;28;20048;-57
2023/03/23 08:14:41;;;;;;;2.03;1.80;;;24.70;33.90;;;;;;5079793;28;20043;-60
2023/03/23 08:17:08;;;;;;;4.20;2.10;;;24.80;33.90;;;;;;5084667;28;20055;-58
2023/03/23 08:19:36;;;;;;;3.83;2.20;;;24.80;33.90;;;;;;5081327;28;20488;-59
2023/03/23 08:22:06;;;;;;;1.77;1.67;;;24.90;33.80;;;;;;5082260;28;20098;-61
2023/03/23 08:24:32;;;;;;;2.67;1.70;;;24.90;33.80;;;;;;5081058;28;20670;-60
2023/03/23 08:27:00;;;;;;;2.67;1.83;;;25.00;33.80;;;;;;5080146;28;20052;-61
2023/03/23 08:29:26;;;;;;;3.35;2.10;;;25.10;33.80;;;;;;5082453;28;20044;-59
2023/03/23 08:31:52;;;;;;;3.28;1.35;;;25.10;33.70;;;;;;5082309;28;20447;-58
2023/03/23 08:34:18;;;;;;;1.80;1.70;;;25.10;33.50;;;;;;5079829;28;20186;-60
2023/03/23 08:36:46;;;;;;;2.10;1.70;;;25.20;33.50;;;;;;5080304;28;20044;-60
2023/03/23 08:39:14;;;;;;;3.88;1.40;;;25.30;33.60;;;;;;5076379;28;20485;-59
2023/03/23 08:41:41;;;;;;;1.67;1.58;;;25.30;33.60;;;;;;5079230;28;20534;-60
2023/03/23 08:44:08;;;;;;;3.53;2.03;;;25.40;33.60;;;;;;5081361;28;20053;-60
2023/03/23 08:46:34;;;;;;;2.78;1.92;;;25.40;33.50;;;;;;5075515;28;21348;-59
2023/03/23 08:49:01;;;;;;;2.15;1.92;;;25.50;33.30;;;;;;5084348;28;20056;-60
2023/03/23 08:51:27;;;;;;;2.20;1.77;;;25.50;33.10;;;;;;5088514;28;20039;-59
2023/03/23 08:53:54;;;;;;;2.47;1.90;;;25.50;33.00;;;;;;5086985;28;20047;-60
2023/03/23 08:56:20;;;;;;;2.53;1.85;;;25.50;32.80;;;;;;5086132;28;20044;-60
2023/03/23 08:58:47;;;;;;;3.03;1.83;;;25.50;32.90;;;;;;5086573;28;20036;-59
2023/03/23 09:01:13;;;;;;;4.82;1.90;;;25.60;32.90;;;;;;5081008;28;20044;-58
2023/03/23 09:03:40;;;;;;;3.28;1.80;;;25.60;32.90;;;;;;5080208;28;20044;-57
2023/03/23 09:06:08;;;;;;;1.63;1.38;;;25.60;32.90;;;;;;5083530;28;20094;-58
2023/03/23 09:08:35;;;;;;;2.70;1.75;;;25.60;32.90;;;;;;5082475;28;20051;-57
2023/03/23 09:11:05;;;;;;;1.75;1.45;;;25.60;32.70;;;;;;5085863;28;20036;-61
2023/03/23 09:13:31;;;;;;;2.33;1.25;;;25.70;32.80;;;;;;5088603;28;20040;-59
2023/03/23 09:15:57;;;;;;;1.63;1.38;;;25.70;32.80;;;;;;5070611;28;20044;-58
2023/03/23 09:18:24;;;;;;;3.90;1.40;;;25.70;32.60;;;;;;5087578;28;20044;-59
2023/03/23 09:20:52;;;;;;;1.73;1.63;;;25.70;32.70;;;;;;5079759;28;20040;-60
2023/03/23 09:23:20;;;;;;;2.33;1.63;;;25.70;32.60;;;;;;5079906;28;20052;-61
2023/03/23 09:25:46;;;;;;;2.20;1.60;;;25.70;32.70;;;;;;5087401;28;20072;-61
2023/03/23 09:28:13;;;;;;;1.90;1.40;;;25.70;32.60;;;;;;5080110;28;20106;-61
2023/03/23 09:30:40;;;;;;;5.43;1.63;;;25.80;32.60;;;;;;5090119;28;20044;-61
2023/03/23 09:33:08;;;;;;;1.52;1.40;;;25.80;32.50;;;;;;5082044;28;20040;-61
2023/03/23 09:35:36;;;;;;;2.28;1.30;;;25.80;32.60;;;;;;5087228;28;20044;-60
2023/03/23 09:38:03;;;;;;;2.55;1.52;;;25.80;32.50;;;;;;5078952;28;20059;-60
2023/03/23 09:40:53;;;;;;;2.20;1.58;;;25.80;32.50;;;;;;5087133;28;20051;-60
2023/03/23 09:43:52;;;;;;;1.60;1.50;;;25.80;32.60;;;;;;5085849;28;20558;-59
2023/03/23 09:46:58;;;;;;;5.95;1.45;;;25.80;32.40;;;;;;5075705;28;20304;-61
2023/03/23 09:49:48;;;;;;;7.03;1.60;;;25.90;32.70;;;;;;5082562;28;20134;-60
2023/03/23 09:52:17;;;;;;;4.20;1.45;;;25.80;32.40;;;;;;5085359;28;20523;-60
2023/03/23 09:54:50;;;;;;;2.50;1.70;;;25.80;32.30;;;;;;5084869;28;20101;-59
2023/03/23 09:57:35;;;;;;;1.45;1.35;;;25.80;32.00;;;;;;5081049;28;20061;-60
2023/03/23 10:00:19;;;;;;;3.13;1.17;;;25.80;31.90;;;;;;5079662;28;20043;-61
2023/03/23 10:03:15;;;;;;;2.45;1.80;;;25.80;32.10;;;;;;5076635;28;20048;-59
2023/03/23 10:05:45;;;;;;;1.77;1.60;;;25.90;32.70;;;;;;5079771;28;20061;-60
2023/03/23 10:08:18;;;;;;;2.45;1.45;;;25.90;32.20;;;;;;5082663;28;20076;-60
2023/03/23 10:11:07;;;;;;;1.45;1.40;;;25.90;32.30;;;;;;5085213;28;20161;-60
2023/03/23 10:14:07;;;;;;;2.53;1.67;;;26.00;32.40;;;;;;5080597;28;20036;-60
2023/03/23 10:16:39;;;;;;;1.55;1.40;;;26.00;32.30;;;;;;5085952;28;20040;-59
2023/03/23 10:19:17;;;;;;;1.40;1.25;;;26.10;32.20;;;;;;5081544;28;20505;-61
2023/03/23 10:21:55;;;;;;;4.70;1.50;;;26.10;32.20;;;;;;5085340;28;20128;-61
2023/03/23 10:24:34;;;;;;;4.70;1.60;;;26.10;32.10;;;;;;5083186;28;20185;-60
2023/03/23 10:27:18;;;;;;;3.50;1.63;;;26.20;32.10;;;;;;5080420;28;20044;-61
2023/03/23 10:30:01;;;;;;;1.83;1.45;;;26.20;32.10;;;;;;5069985;28;20066;-61
2023/03/23 10:32:55;;;;;;;1.80;1.63;;;26.30;32.20;;;;;;5086961;28;20059;-62
2023/03/23 10:35:44;;;;;;;1.92;1.67;;;26.30;32.10;;;;;;5085902;28;20071;-60
2023/03/23 10:38:25;;;;;;;1.67;1.33;;;26.40;32.10;;;;;;5088708;28;20036;-60
2023/03/23 10:40:58;;;;;;;3.80;1.98;;;26.40;32.00;;;;;;5083173;28;20067;-60
2023/03/23 10:43:25;;;;;;;2.03;1.75;;;26.50;32.10;;;;;;5079592;28;20060;-59
2023/03/23 10:46:01;;;;;;;1.90;1.80;;;26.50;32.20;;;;;;5083177;28;20032;-61
2023/03/23 10:48:36;;;;;;;2.20;1.50;;;26.50;31.90;;;;;;5083734;28;20165;-62
2023/03/23 10:51:08;;;;;;;1.80;1.63;;;26.60;32.00;;;;;;5082826;28;20048;-61
2023/03/23 10:53:40;;;;;;;7.45;1.70;;;26.60;31.90;;;;;;5081533;28;20043;-60
2023/03/23 10:56:25;;;;;;;2.50;1.77;;;26.60;31.90;;;;;;5081553;28;20044;-60
2023/03/23 10:58:52;;;;;;;2.55;1.65;;;26.60;31.90;;;;;;5083665;28;20132;-61
2023/03/23 11:01:20;;;;;;;2.03;1.67;;;26.60;31.70;;;;;;5082552;28;20056;-61
2023/03/23 11:03:49;;;;;;;2.30;1.67;;;26.70;31.70;;;;;;5084622;28;20044;-61
2023/03/23 11:06:33;;;;;;;3.73;2.03;;;26.70;31.60;;;;;;5085424;28;20537;-62
2023/03/23 11:09:13;;;;;;;1.63;1.52;;;26.70;31.70;;;;;;5087639;28;20113;-61
2023/03/23 11:11:49;;;;;;;4.93;1.42;;;26.70;31.60;;;;;;5087354;28;20052;-61
2023/03/23 11:14:24;;;;;;;3.45;1.50;;;26.80;31.60;;;;;;5081516;28;20036;-61
2023/03/23 11:17:02;;;;;;;3.90;2.03;;;26.70;31.20;;;;;;5088463;28;20044;-60
2023/03/23 11:19:37;;;;;;;1.73;1.63;;;26.70;30.90;;;;;;5080890;28;20082;-60
2023/03/23 11:22:24;;;;;;;1.95;1.80;;;26.70;30.90;;;;;;5085358;28;20040;-60
2023/03/23 11:24:55;;;;;;;1.80;1.70;;;26.70;30.90;;;;;;5077935;28;20047;-61
2023/03/23 11:27:23;;;;;;;3.40;1.67;;;26.70;30.70;;;;;;5081403;28;20492;-62
2023/03/23 11:30:08;;;;;;;2.63;1.65;;;26.60;30.80;;;;;;5082174;28;20131;-61
2023/03/23 11:32:35;;;;;;;2.47;2.03;;;26.60;30.90;;;;;;5085694;28;20058;-61
2023/03/23 11:35:08;;;;;;;2.55;1.25;;;26.60;30.90;;;;;;5080827;28;20062;-61
2023/03/23 11:37:40;;;;;;;1.42;1.33;;;26.60;31.00;;;;;;5079370;28;20063;-61
2023/03/23 11:40:21;;;;;;;4.47;1.70;;;26.70;31.10;;;;;;5076566;28;20078;-61
2023/03/23 11:42:58;;;;;;;2.72;1.70;;;26.60;30.90;;;;;;5082206;28;20074;-61
2023/03/23 11:45:36;;;;;;;1.45;1.33;;;26.60;31.00;;;;;;5078138;28;20093;-62
2023/03/23 11:48:25;;;;;;;2.22;1.60;;;26.60;31.00;;;;;;5080777;28;20059;-62
2023/03/23 11:50:57;;;;;;;1.50;1.33;;;26.70;31.10;;;;;;5080552;28;20032;-61
2023/03/23 11:53:43;;;;;;;1.75;1.40;;;26.60;31.30;;;;;;5078564;28;20044;-60
2023/03/23 11:56:36;;;;;;;2.17;1.88;;;26.70;31.30;;;;;;5081214;28;20044;-62
2023/03/23 11:59:08;;;;;;;1.73;1.63;;;26.70;31.20;;;;;;5084841;28;20036;-61
2023/03/23 12:02:03;;;;;;;1.98;1.73;;;26.70;31.00;;;;;;5079225;28;20048;-61
2023/03/23 12:04:47;;;;;;;1.60;1.50;;;26.70;30.60;;;;;;5086434;28;20040;-61
2023/03/23 12:07:36;;;;;;;2.45;1.58;;;26.70;30.80;;;;;;5087398;28;20131;-60
2023/03/23 12:10:22;;;;;;;1.75;1.48;;;26.70;30.80;;;;;;5082150;28;20036;-60
2023/03/23 12:13:20;;;;;;;1.77;1.50;;;26.70;30.80;;;;;;5066474;28;20421;-59
2023/03/23 12:16:17;;;;;;;1.75;1.15;;;26.70;30.60;;;;;;5081647;28;20379;-59
2023/03/23 12:19:03;;;;;;;1.77;1.45;;;26.70;30.60;;;;;;5082026;28;20052;-60
2023/03/23 12:21:45;;;;;;;1.52;1.42;;;26.60;30.70;;;;;;5077863;28;20044;-59
2023/03/23 12:24:42;;;;;;;1.80;1.70;;;26.70;30.70;;;;;;5079791;28;20071;-59
2023/03/23 12:27:42;;;;;;;2.45;1.90;;;26.70;30.60;;;;;;5078611;28;20032;-58
2023/03/23 12:30:31;;;;;;;1.88;1.77;;;26.70;30.70;;;;;;5076585;28;20123;-59
2023/03/23 12:33:21;;;;;;;3.38;1.60;;;26.60;30.70;;;;;;5079335;28;20082;-59
2023/03/23 12:36:23;;;;;;;2.72;1.42;;;26.60;30.60;;;;;;5083793;28;20381;-59
2023/03/23 12:39:21;;;;;;;2.03;1.63;;;26.60;30.70;;;;;;5076949;28;20048;-59
2023/03/23 12:42:05;;;;;;;3.78;1.60;;;26.60;30.70;;;;;;5072173;28;20046;-60
2023/03/23 12:44:52;;;;;;;2.10;1.90;;;26.70;30.80;;;;;;5079877;28;20053;-60
2023/03/23 12:47:57;;;;;;;1.85;1.52;;;26.70;30.70;;;;;;5079837;28;20573;-59
2023/03/23 12:50:39;;;;;;;1.90;1.80;;;26.80;30.70;;;;;;5084549;28;20044;-60
2023/03/23 12:53:23;;;;;;;1.90;1.52;;;26.80;30.60;;;;;;5080631;28;20045;-60
2023/03/23 12:56:24;;;;;;;1.48;1.38;;;26.80;30.60;;;;;;5082028;28;20068;-57
2023/03/23 12:59:13;;;;;;;2.17;1.90;;;26.90;30.80;;;;;;5075082;28;20055;-57
2023/03/23 13:02:03;;;;;;;2.05;1.58;;;26.90;30.60;;;;;;5074292;28;20039;-57
2023/03/23 13:04:40;;;;;;;1.58;1.48;;;26.90;30.50;;;;;;5075076;28;20052;-59
2023/03/23 13:07:10;;;;;;;1.60;1.50;;;26.90;30.70;;;;;;5073578;28;20044;-59
2023/03/23 13:09:56;;;;;;;3.03;1.33;;;26.90;30.50;;;;;;5079792;28;20047;-57
2023/03/23 13:12:24;;;;;;;1.63;1.52;;;26.90;30.40;;;;;;5080099;28;20060;-57
2023/03/23 13:15:07;;;;;;;2.95;1.60;;;27.00;30.60;;;;;;5079105;28;20036;-56